createdAt,value
2018-01-19T00:00:53.787Z,87.68
2018-01-19T00:01:53.620Z,87.77
2018-01-19T00:02:53.655Z,87.49
2018-01-19T00:03:53.548Z,88.73
2018-01-19T00:04:53.566Z,88.63
2018-01-19T00:05:53.498Z,87.30
2018-01-19T00:06:53.578Z,87.68
2018-01-19T00:07:53.435Z,87.59
2018-01-19T00:08:53.488Z,88.54
2018-01-19T00:09:53.394Z,87.68
2018-01-19T00:10:53.396Z,87.97
2018-01-19T00:11:53.330Z,87.02
2018-01-19T00:12:53.414Z,89.11
2018-01-19T00:13:53.316Z,87.30
2018-01-19T00:14:53.248Z,88.25
2018-01-19T00:15:53.329Z,87.49
2018-01-19T00:16:53.195Z,88.54
2018-01-19T00:17:53.237Z,87.21
2018-01-19T00:18:53.136Z,88.44
2018-01-19T00:19:53.145Z,86.93
2018-01-19T00:20:53.087Z,87.12
2018-01-19T00:21:53.158Z,87.87
2018-01-19T00:22:53.027Z,87.77
2018-01-19T00:23:53.007Z,86.26
2018-01-19T00:24:53.073Z,87.12
2018-01-19T00:25:52.951Z,87.30
2018-01-19T00:26:52.985Z,87.12
2018-01-19T00:27:52.895Z,86.45
2018-01-19T00:28:52.867Z,86.45
2018-01-19T00:29:52.834Z,86.26
2018-01-19T00:30:52.906Z,85.60
2018-01-19T00:31:52.780Z,85.13
2018-01-19T00:32:52.814Z,86.55
2018-01-19T00:33:52.729Z,85.88
2018-01-19T00:34:52.725Z,85.78
2018-01-19T00:35:52.669Z,85.78
2018-01-19T00:36:52.738Z,85.97
2018-01-19T00:37:52.615Z,85.31
2018-01-19T00:38:52.648Z,85.78
2018-01-19T00:39:52.563Z,84.65
2018-01-19T00:40:52.558Z,85.22
2018-01-19T00:41:52.508Z,84.55
2018-01-19T00:42:52.573Z,83.98
2018-01-19T00:43:52.450Z,84.27
2018-01-19T00:44:52.478Z,83.56
2018-01-19T00:45:52.399Z,83.47
2018-01-19T00:46:52.390Z,81.48
2018-01-19T00:47:52.349Z,80.82
2018-01-19T00:48:52.400Z,80.72
2018-01-19T00:49:52.289Z,78.83
2018-01-19T00:50:52.318Z,77.50
2018-01-19T00:51:52.232Z,76.93
2018-01-19T00:52:52.204Z,76.74
2018-01-19T00:53:52.181Z,76.14
2018-01-19T00:54:52.238Z,73.68
2018-01-19T00:55:52.120Z,73.20
2018-01-19T00:56:52.143Z,72.34
2018-01-19T00:57:52.070Z,73.01
2018-01-19T00:58:52.036Z,71.69
2018-01-19T00:59:52.062Z,69.98
2018-01-19T01:00:51.986Z,69.98
2018-01-19T01:01:51.969Z,69.32
2018-01-19T01:02:51.931Z,69.03
2018-01-19T01:03:51.984Z,68.18
2018-01-19T01:04:51.875Z,67.52
2018-01-19T01:05:51.892Z,66.95
2018-01-19T01:06:51.812Z,67.90
2018-01-19T01:07:51.788Z,66.67
2018-01-19T01:08:51.762Z,66.67
2018-01-19T01:09:51.814Z,66.47
2018-01-19T01:10:51.701Z,66.76
2018-01-19T01:11:51.724Z,66.38
2018-01-19T01:12:51.650Z,65.81
2018-01-19T01:13:51.633Z,65.81
2018-01-19T01:14:51.592Z,64.87
2018-01-19T01:15:51.646Z,64.77
2018-01-19T01:16:51.535Z,64.49
2018-01-19T01:17:51.556Z,64.39
2018-01-19T01:18:51.481Z,65.06
2018-01-19T01:19:51.463Z,65.44
2018-01-19T01:20:51.424Z,65.34
2018-01-19T01:21:51.502Z,65.44
2018-01-19T01:22:51.369Z,65.34
2018-01-19T01:23:51.388Z,65.34
2018-01-19T01:24:51.307Z,65.63
2018-01-19T01:25:51.298Z,65.25
2018-01-19T01:26:51.261Z,65.63
2018-01-19T01:27:51.224Z,67.05
2018-01-19T01:28:51.196Z,66.76
2018-01-19T01:29:51.220Z,66.47
2018-01-19T01:30:51.147Z,65.91
2018-01-19T01:31:51.128Z,65.81
2018-01-19T01:32:51.090Z,65.72
2018-01-19T01:33:51.141Z,66.09
2018-01-19T01:34:51.034Z,66.38
2018-01-19T01:35:51.052Z,65.91
2018-01-19T01:36:50.977Z,66.76
2018-01-19T01:37:50.960Z,67.14
2018-01-19T01:38:50.920Z,66.95
2018-01-19T01:39:50.977Z,67.14
2018-01-19T01:40:50.865Z,67.05
2018-01-19T01:41:50.882Z,67.71
2018-01-19T01:42:50.890Z,68.18
2018-01-19T01:43:50.777Z,69.13
2018-01-19T01:44:50.800Z,68.18
2018-01-19T01:45:50.722Z,68.18
2018-01-19T01:46:50.708Z,68.56
2018-01-19T01:47:50.670Z,68.94
2018-01-19T01:48:50.721Z,68.94
2018-01-19T01:49:50.616Z,67.80
2018-01-19T01:50:50.628Z,67.71
2018-01-19T01:51:50.557Z,67.43
2018-01-19T01:52:50.527Z,67.24
2018-01-19T01:53:50.502Z,67.80
2018-01-19T01:54:50.553Z,68.46
2018-01-19T01:55:50.446Z,68.37
2018-01-19T01:56:50.463Z,67.90
2018-01-19T01:57:50.388Z,68.75
2018-01-19T01:58:50.374Z,69.03
2018-01-19T01:59:50.334Z,69.03
2018-01-19T02:00:50.385Z,68.65
2018-01-19T02:01:50.279Z,68.27
2018-01-19T02:02:50.295Z,67.61
2018-01-19T02:03:50.222Z,67.71
2018-01-19T02:04:50.191Z,67.43
2018-01-19T02:05:50.169Z,67.14
2018-01-19T02:06:50.218Z,66.09
2018-01-19T02:07:50.104Z,66.28
2018-01-19T02:08:50.128Z,66.57
2018-01-19T02:09:50.054Z,66.09
2018-01-19T02:10:50.025Z,66.76
2018-01-19T02:11:50.045Z,66.95
2018-01-19T02:12:49.966Z,66.86
2018-01-19T02:13:50.059Z,67.43
2018-01-19T02:14:49.913Z,67.71
2018-01-19T02:15:49.966Z,67.96
2018-01-19T02:16:49.852Z,67.96
2018-01-19T02:17:49.995Z,67.96
2018-01-19T02:18:49.803Z,68.33
2018-01-19T02:19:49.786Z,68.52
2018-01-19T02:20:49.741Z,68.52
2018-01-19T02:21:49.716Z,69.13
2018-01-19T02:22:49.701Z,69.09
2018-01-19T02:23:49.657Z,69.19
2018-01-19T02:24:49.712Z,69.85
2018-01-19T02:25:49.604Z,69.79
2018-01-19T02:26:49.575Z,69.89
2018-01-19T02:27:49.548Z,70.45
2018-01-19T02:28:49.534Z,70.07
2018-01-19T02:29:49.491Z,70.64
2018-01-19T02:30:49.547Z,70.55
2018-01-19T02:31:49.435Z,71.40
2018-01-19T02:32:49.455Z,71.12
2018-01-19T02:33:49.376Z,71.88
2018-01-19T02:34:49.365Z,72.16
2018-01-19T02:35:49.316Z,72.16
2018-01-19T02:36:49.382Z,72.34
2018-01-19T02:37:49.262Z,72.16
2018-01-19T02:38:49.289Z,72.73
2018-01-19T02:39:49.205Z,73.58
2018-01-19T02:40:49.198Z,74.43
2018-01-19T02:41:49.152Z,73.49
2018-01-19T02:42:49.211Z,74.05
2018-01-19T02:43:49.097Z,74.81
2018-01-19T02:44:49.120Z,75.19
2018-01-19T02:45:49.040Z,75.76
2018-01-19T02:46:49.030Z,76.14
2018-01-19T02:47:48.989Z,76.89
2018-01-19T02:48:49.039Z,77.08
2018-01-19T02:49:48.931Z,77.65
2018-01-19T02:50:48.897Z,77.46
2018-01-19T02:51:48.925Z,78.59
2018-01-19T02:52:48.863Z,79.74
2018-01-19T02:53:48.815Z,79.74
2018-01-19T02:54:48.873Z,79.74
2018-01-19T02:55:48.757Z,80.21
2018-01-19T02:56:48.784Z,80.40
2018-01-19T02:57:48.703Z,81.15
2018-01-19T02:58:48.694Z,80.58
2018-01-19T02:59:48.642Z,80.58
2018-01-19T03:00:48.708Z,81.34
2018-01-19T03:01:48.590Z,81.72
2018-01-19T03:02:48.561Z,81.92
2018-01-19T03:03:48.529Z,81.44
2018-01-19T03:04:48.525Z,82.63
2018-01-19T03:05:48.477Z,83.01
2018-01-19T03:06:48.540Z,82.91
2018-01-19T03:07:48.418Z,82.44
2018-01-19T03:08:48.447Z,83.01
2018-01-19T03:09:48.365Z,82.63
2018-01-19T03:10:48.358Z,82.63
2018-01-19T03:11:48.304Z,82.82
2018-01-19T03:12:48.272Z,82.63
2018-01-19T03:13:48.250Z,82.91
2018-01-19T03:14:48.280Z,84.14
2018-01-19T03:15:48.196Z,83.95
2018-01-19T03:16:48.188Z,83.62
2018-01-19T03:17:48.134Z,83.48
2018-01-19T03:18:48.198Z,83.43
2018-01-19T03:19:48.081Z,83.76
2018-01-19T03:20:48.052Z,83.86
2018-01-19T03:21:48.121Z,84.52
2018-01-19T03:22:47.995Z,84.75
2018-01-19T03:23:48.026Z,85.28
2018-01-19T03:24:47.937Z,85.70
2018-01-19T03:25:47.912Z,85.23
2018-01-19T03:26:47.883Z,85.51
2018-01-19T03:27:47.950Z,85.19
2018-01-19T03:28:47.823Z,85.38
2018-01-19T03:29:47.861Z,85.57
2018-01-19T03:30:47.766Z,85.89
2018-01-19T03:31:47.736Z,86.08
2018-01-19T03:32:47.710Z,85.99
2018-01-19T03:33:47.780Z,85.70
2018-01-19T03:34:47.652Z,86.65
2018-01-19T03:35:47.693Z,86.70
2018-01-19T03:36:47.601Z,86.55
2018-01-19T03:37:47.569Z,86.55
2018-01-19T03:38:47.540Z,87.65
2018-01-19T03:39:47.613Z,87.27
2018-01-19T03:40:47.485Z,87.36
2018-01-19T03:41:47.524Z,87.46
2018-01-19T03:42:47.428Z,87.55
2018-01-19T03:43:47.402Z,87.65
2018-01-19T03:44:47.438Z,87.74
2018-01-19T03:45:47.343Z,87.84
2018-01-19T03:46:48.374Z,87.84
2018-01-19T03:47:47.286Z,87.46
2018-01-19T03:48:47.364Z,87.46
2018-01-19T03:49:47.229Z,88.21
2018-01-19T03:50:47.270Z,88.12
2018-01-19T03:51:47.177Z,88.35
2018-01-19T03:52:47.182Z,88.12
2018-01-19T03:53:47.119Z,88.40
2018-01-19T03:54:47.088Z,88.40
2018-01-19T03:55:47.097Z,88.92
2018-01-19T03:56:47.031Z,88.73
2018-01-19T03:57:47.109Z,88.92
2018-01-19T03:58:46.972Z,88.64
2018-01-19T03:59:46.948Z,88.82
2018-01-19T04:00:46.919Z,89.01
2018-01-19T04:01:46.929Z,88.64
2018-01-19T04:02:46.864Z,89.49
2018-01-19T04:03:46.939Z,89.49
2018-01-19T04:04:46.808Z,89.96
2018-01-19T04:05:46.851Z,89.77
2018-01-19T04:06:46.856Z,90.06
2018-01-19T04:07:46.719Z,89.77
2018-01-19T04:08:46.769Z,90.34
2018-01-19T04:09:46.670Z,90.81
2018-01-19T04:10:46.680Z,90.25
2018-01-19T04:11:46.609Z,90.91
2018-01-19T04:12:46.584Z,91.10
2018-01-19T04:13:46.592Z,91.00
2018-01-19T04:14:46.527Z,91.19
2018-01-19T04:15:46.605Z,91.76
2018-01-19T04:16:46.472Z,91.76
2018-01-19T04:17:46.512Z,91.95
2018-01-19T04:18:46.406Z,91.76
2018-01-19T04:19:46.424Z,92.05
2018-01-19T04:20:46.408Z,92.52
2018-01-19T04:21:46.440Z,92.80
2018-01-19T04:22:46.298Z,92.24
2018-01-19T04:23:46.271Z,92.94
2018-01-19T04:24:46.239Z,92.10
2018-01-19T04:25:46.257Z,92.57
2018-01-19T04:26:46.185Z,92.66
2018-01-19T04:27:46.269Z,92.29
2018-01-19T04:28:46.130Z,92.38
2018-01-19T04:29:46.177Z,92.47
2018-01-19T04:30:46.071Z,92.29
2018-01-19T04:31:46.086Z,91.81
2018-01-19T04:32:46.015Z,92.14
2018-01-19T04:33:46.101Z,92.14
2018-01-19T04:34:45.955Z,92.24
2018-01-19T04:35:46.010Z,92.24
2018-01-19T04:36:45.897Z,92.24
2018-01-19T04:37:45.920Z,92.52
2018-01-19T04:38:45.841Z,91.95
2018-01-19T04:39:45.937Z,92.52
2018-01-19T04:40:45.791Z,92.24
2018-01-19T04:41:45.755Z,92.33
2018-01-19T04:42:45.732Z,92.52
2018-01-19T04:43:45.752Z,92.61
2018-01-19T04:44:45.675Z,92.33
2018-01-19T04:45:45.664Z,93.18
2018-01-19T04:46:45.621Z,92.33
2018-01-19T04:47:45.588Z,92.80
2018-01-19T04:48:45.578Z,93.08
2018-01-19T04:49:45.536Z,92.80
2018-01-19T04:50:45.591Z,92.99
2018-01-19T04:51:45.475Z,92.90
2018-01-19T04:52:45.499Z,93.46
2018-01-19T04:53:45.423Z,93.27
2018-01-19T04:54:45.429Z,93.37
2018-01-19T04:55:45.372Z,93.84
2018-01-19T04:56:45.423Z,94.79
2018-01-19T04:57:45.311Z,94.32
2018-01-19T04:58:45.285Z,94.70
2018-01-19T04:59:45.279Z,95.17
2018-01-19T05:00:45.265Z,95.07
2018-01-19T05:01:45.201Z,94.98
2018-01-19T05:02:45.257Z,94.98
2018-01-19T05:03:45.138Z,95.17
2018-01-19T05:04:45.116Z,95.17
2018-01-19T05:05:45.087Z,95.26
2018-01-19T05:06:45.081Z,95.45
2018-01-19T05:07:45.029Z,95.26
2018-01-19T05:08:45.084Z,95.17
2018-01-19T05:09:45.106Z,95.17
2018-01-19T05:10:44.985Z,95.64
2018-01-19T05:11:44.958Z,95.64
2018-01-19T05:12:45.017Z,94.89
2018-01-19T05:13:44.902Z,95.07
2018-01-19T05:14:44.919Z,95.26
2018-01-19T05:15:44.865Z,95.36
2018-01-19T05:16:44.932Z,95.74
2018-01-19T05:17:44.808Z,95.74
2018-01-19T05:18:44.738Z,95.83
2018-01-19T05:19:44.694Z,95.74
2018-01-19T05:20:44.661Z,96.88
2018-01-19T05:21:44.659Z,97.44
2018-01-19T05:22:44.659Z,97.25
2018-01-19T05:23:44.582Z,97.16
2018-01-19T05:24:44.576Z,97.25
2018-01-19T05:25:44.539Z,97.25
2018-01-19T05:26:44.585Z,97.35
2018-01-19T05:27:44.464Z,98.01
2018-01-19T05:28:44.490Z,98.11
2018-01-19T05:29:44.410Z,98.49
2018-01-19T05:30:44.409Z,99.05
2018-01-19T05:31:44.350Z,99.52
2018-01-19T05:32:44.416Z,99.24
2018-01-19T05:33:44.296Z,99.71
2018-01-19T05:34:44.324Z,99.99
2018-01-19T05:35:44.238Z,99.99
2018-01-19T05:36:44.233Z,99.99
2018-01-19T05:37:44.185Z,99.99
2018-01-19T05:38:44.245Z,99.99
2018-01-19T05:39:44.158Z,99.99
2018-01-19T05:40:44.097Z,99.99
2018-01-19T05:41:44.168Z,99.99
2018-01-19T05:42:44.045Z,99.99
2018-01-19T05:43:44.074Z,99.99
2018-01-19T05:44:43.983Z,99.99
2018-01-19T05:45:43.986Z,99.99
2018-01-19T05:46:43.924Z,99.99
2018-01-19T05:47:43.995Z,99.99
2018-01-19T05:48:43.879Z,99.99
2018-01-19T05:49:43.906Z,99.99
2018-01-19T05:50:43.815Z,99.99
2018-01-19T05:51:43.792Z,99.99
2018-01-19T05:52:43.824Z,99.99
2018-01-19T05:53:43.732Z,99.99
2018-01-19T05:54:43.730Z,99.99
2018-01-19T05:55:43.702Z,99.99
2018-01-19T05:56:43.647Z,99.99
2018-01-19T05:57:43.623Z,99.99
2018-01-19T05:58:43.654Z,99.99
2018-01-19T05:59:43.562Z,99.99
2018-01-19T06:00:43.561Z,99.99
2018-01-19T06:01:43.510Z,99.99
2018-01-19T06:02:43.480Z,99.99
2018-01-19T06:03:43.449Z,99.99
2018-01-19T06:04:43.487Z,99.99
2018-01-19T06:05:43.394Z,99.99
2018-01-19T06:06:43.397Z,99.99
2018-01-19T06:07:43.339Z,99.99
2018-01-19T06:08:43.315Z,99.99
2018-01-19T06:09:43.312Z,99.99
2018-01-19T06:10:43.255Z,99.99
2018-01-19T06:11:43.325Z,99.99
2018-01-19T06:12:43.201Z,99.99
2018-01-19T06:13:43.239Z,99.99
2018-01-19T06:14:43.143Z,99.99
2018-01-19T06:15:43.143Z,99.99
2018-01-19T06:16:43.090Z,99.99
2018-01-19T06:17:43.155Z,99.99
2018-01-19T06:18:43.025Z,99.99
2018-01-19T06:19:43.004Z,99.99
2018-01-19T06:20:42.972Z,99.99
2018-01-19T06:21:42.974Z,99.99
2018-01-19T06:22:42.915Z,99.99
2018-01-19T06:23:42.989Z,99.99
2018-01-19T06:24:42.857Z,99.99
2018-01-19T06:25:42.899Z,99.99
2018-01-19T06:26:42.806Z,99.99
2018-01-19T06:27:42.833Z,99.99
2018-01-19T06:28:42.750Z,99.99
2018-01-19T06:29:42.816Z,99.99
2018-01-19T06:30:42.695Z,99.99
2018-01-19T06:31:42.664Z,99.99
2018-01-19T06:32:42.638Z,99.99
2018-01-19T06:33:42.638Z,99.99
2018-01-19T06:34:42.581Z,99.99
2018-01-19T06:35:42.653Z,99.99
2018-01-19T06:36:42.521Z,99.99
2018-01-19T06:37:42.497Z,99.99
2018-01-19T06:38:42.465Z,99.99
2018-01-19T06:39:42.470Z,99.99
2018-01-19T06:40:42.409Z,99.99
2018-01-19T06:41:42.482Z,99.99
2018-01-19T06:42:42.352Z,99.99
2018-01-19T06:43:42.392Z,99.99
2018-01-19T06:44:42.299Z,99.99
2018-01-19T06:45:42.308Z,99.99
2018-01-19T06:46:42.243Z,99.99
2018-01-19T06:47:42.315Z,99.99
2018-01-19T06:48:42.182Z,99.99
2018-01-19T06:49:42.160Z,99.99
2018-01-19T06:50:42.230Z,99.99
2018-01-19T06:51:42.100Z,99.99
2018-01-19T06:52:42.139Z,99.99
2018-01-19T06:53:42.046Z,99.99
2018-01-19T06:54:42.017Z,99.99
2018-01-19T06:55:42.055Z,99.99
2018-01-19T06:56:41.957Z,99.99
2018-01-19T06:57:41.972Z,99.99
2018-01-19T06:58:41.905Z,99.99
2018-01-19T06:59:41.977Z,99.99
2018-01-19T07:00:41.883Z,99.99
2018-01-19T07:01:41.817Z,99.99
2018-01-19T07:02:42.820Z,99.99
2018-01-19T07:03:41.762Z,99.99
2018-01-19T07:04:41.810Z,99.99
2018-01-19T07:05:41.734Z,99.99
2018-01-19T07:06:41.676Z,99.99
2018-01-19T07:07:41.643Z,99.99
2018-01-19T07:08:41.739Z,99.99
2018-01-19T07:09:41.592Z,99.99
2018-01-19T07:10:41.646Z,99.99
2018-01-19T07:11:41.530Z,99.99
2018-01-19T07:12:41.509Z,99.99
2018-01-19T07:13:41.483Z,99.99
2018-01-19T07:14:41.565Z,99.99
2018-01-19T07:15:41.416Z,99.99
2018-01-19T07:16:41.472Z,99.99
2018-01-19T07:17:41.364Z,99.99
2018-01-19T07:18:41.381Z,99.99
2018-01-19T07:19:41.305Z,99.99
2018-01-19T07:20:41.287Z,99.99
2018-01-19T07:21:41.252Z,99.99
2018-01-19T07:22:41.303Z,99.99
2018-01-19T07:23:41.189Z,99.99
2018-01-19T07:24:41.165Z,99.99
2018-01-19T07:25:41.222Z,99.99
2018-01-19T07:26:41.110Z,99.99
2018-01-19T07:27:41.123Z,99.99
2018-01-19T07:28:41.058Z,99.99
2018-01-19T07:29:41.025Z,99.99
2018-01-19T07:30:40.994Z,99.99
2018-01-19T07:31:41.049Z,99.99
2018-01-19T07:32:40.938Z,99.99
2018-01-19T07:33:40.959Z,99.99
2018-01-19T07:34:40.881Z,99.99
2018-01-19T07:35:40.857Z,99.99
2018-01-19T07:36:40.825Z,99.99
2018-01-19T07:37:40.853Z,99.99
2018-01-19T07:38:40.772Z,99.99
2018-01-19T07:39:40.758Z,99.99
2018-01-19T07:40:40.709Z,99.99
2018-01-19T07:41:40.686Z,99.99
2018-01-19T07:42:40.657Z,99.99
2018-01-19T07:43:40.681Z,99.99
2018-01-19T07:44:40.597Z,99.99
2018-01-19T07:45:40.595Z,99.99
2018-01-19T07:46:40.545Z,99.99
2018-01-19T07:47:40.509Z,99.99
2018-01-19T07:48:40.514Z,99.99
2018-01-19T07:49:40.459Z,99.99
2018-01-19T07:50:40.523Z,99.99
2018-01-19T07:51:40.400Z,99.99
2018-01-19T07:52:40.371Z,99.99
2018-01-19T07:53:40.344Z,99.99
2018-01-19T07:54:40.346Z,99.99
2018-01-19T07:55:40.287Z,99.99
2018-01-19T07:56:40.362Z,99.99
2018-01-19T07:57:40.238Z,99.99
2018-01-19T07:58:40.204Z,99.99
2018-01-19T07:59:40.175Z,99.99
2018-01-19T08:00:40.184Z,99.99
2018-01-19T08:01:40.120Z,99.99
2018-01-19T08:02:40.198Z,99.99
2018-01-19T08:03:40.064Z,99.99
2018-01-19T08:04:40.034Z,99.99
2018-01-19T08:05:40.013Z,99.99
2018-01-19T08:06:40.021Z,99.99
2018-01-19T08:07:39.948Z,99.99
2018-01-19T08:08:39.929Z,99.99
2018-01-19T08:09:39.893Z,99.99
2018-01-19T08:10:39.866Z,99.99
2018-01-19T08:11:39.832Z,99.99
2018-01-19T08:12:39.856Z,99.99
2018-01-19T08:13:39.779Z,99.99
2018-01-19T08:14:39.767Z,99.99
2018-01-19T08:15:39.720Z,99.99
2018-01-19T08:16:39.698Z,99.99
2018-01-19T08:17:39.684Z,99.99
2018-01-19T08:18:39.643Z,99.99
2018-01-19T08:19:39.721Z,99.99
2018-01-19T08:20:39.580Z,99.99
2018-01-19T08:21:39.615Z,99.99
2018-01-19T08:22:39.524Z,99.99
2018-01-19T08:23:39.524Z,99.99
2018-01-19T08:24:39.471Z,99.99
2018-01-19T08:25:39.537Z,99.99
2018-01-19T08:26:39.417Z,99.99
2018-01-19T08:27:39.382Z,99.99
2018-01-19T08:28:39.354Z,99.99
2018-01-19T08:29:39.360Z,99.99
2018-01-19T08:30:39.302Z,99.99
2018-01-19T08:31:39.372Z,99.99
2018-01-19T08:32:39.247Z,99.99
2018-01-19T08:33:39.218Z,99.99
2018-01-19T08:34:39.191Z,99.99
2018-01-19T08:35:39.194Z,99.99
2018-01-19T08:36:39.149Z,99.99
2018-01-19T08:37:39.204Z,99.99
2018-01-19T08:38:39.075Z,99.99
2018-01-19T08:39:39.056Z,99.99
2018-01-19T08:40:39.125Z,99.99
2018-01-19T08:41:38.995Z,99.99
2018-01-19T08:42:39.038Z,99.99
2018-01-19T08:43:38.949Z,99.99
2018-01-19T08:44:38.944Z,99.99
2018-01-19T08:45:38.951Z,99.99
2018-01-19T08:46:38.853Z,99.99
2018-01-19T08:47:38.862Z,99.99
2018-01-19T08:48:38.792Z,99.99
2018-01-19T08:49:38.877Z,99.99
2018-01-19T08:50:38.739Z,99.99
2018-01-19T08:51:38.788Z,99.99
2018-01-19T08:52:38.687Z,99.99
2018-01-19T08:53:38.701Z,99.99
2018-01-19T08:54:38.629Z,99.99
2018-01-19T08:55:38.713Z,99.99
2018-01-19T08:56:38.573Z,99.99
2018-01-19T08:57:38.624Z,99.99
2018-01-19T08:58:38.517Z,99.99
2018-01-19T08:59:38.534Z,99.99
2018-01-19T09:00:38.463Z,99.99
2018-01-19T09:01:38.447Z,99.99
2018-01-19T09:02:38.406Z,99.99
2018-01-19T09:03:38.458Z,99.99
2018-01-19T09:04:38.352Z,99.99
2018-01-19T09:05:38.369Z,99.99
2018-01-19T09:06:38.295Z,99.99
2018-01-19T09:07:38.281Z,99.99
2018-01-19T09:08:38.288Z,99.99
2018-01-19T09:09:38.216Z,99.99
2018-01-19T09:10:38.301Z,99.99
2018-01-19T09:11:38.192Z,99.99
2018-01-19T09:12:38.214Z,99.99
2018-01-19T09:13:38.103Z,99.99
2018-01-19T09:14:38.073Z,99.99
2018-01-19T09:15:38.131Z,99.99
2018-01-19T09:16:38.014Z,99.99
2018-01-19T09:17:38.040Z,99.99
2018-01-19T09:18:37.960Z,99.99
2018-01-19T09:19:37.949Z,99.99
2018-01-19T09:20:37.902Z,99.99
2018-01-19T09:21:37.966Z,99.99
2018-01-19T09:22:37.848Z,99.99
2018-01-19T09:23:37.876Z,99.99
2018-01-19T09:24:37.789Z,99.99
2018-01-19T09:25:37.763Z,99.99
2018-01-19T09:26:37.738Z,99.99
2018-01-19T09:27:37.812Z,99.99
2018-01-19T09:28:37.700Z,99.99
2018-01-19T09:29:37.711Z,99.99
2018-01-19T09:30:37.621Z,99.99
2018-01-19T09:31:37.605Z,99.99
2018-01-19T09:32:37.576Z,99.99
2018-01-19T09:33:37.539Z,99.99
2018-01-19T09:34:37.539Z,99.99
2018-01-19T09:35:37.488Z,99.99
2018-01-19T09:36:37.555Z,99.99
2018-01-19T09:37:37.434Z,99.99
2018-01-19T09:38:37.476Z,99.99
2018-01-19T09:39:37.370Z,99.99
2018-01-19T09:40:37.377Z,99.99
2018-01-19T09:41:37.318Z,99.99
2018-01-19T09:42:37.389Z,99.99
2018-01-19T09:43:37.261Z,99.99
2018-01-19T09:44:37.231Z,99.99
2018-01-19T09:45:37.308Z,99.99
2018-01-19T09:46:37.177Z,99.99
2018-01-19T09:47:37.216Z,99.99
2018-01-19T09:48:37.120Z,99.99
2018-01-19T09:49:37.130Z,99.99
2018-01-19T09:50:37.068Z,99.99
2018-01-19T09:51:37.141Z,99.99
2018-01-19T09:52:37.011Z,99.99
2018-01-19T09:53:37.059Z,99.99
2018-01-19T09:54:36.958Z,99.99
2018-01-19T09:55:36.966Z,99.99
2018-01-19T09:56:36.898Z,99.99
2018-01-19T09:57:36.989Z,99.99
2018-01-19T09:58:36.845Z,99.99
2018-01-19T09:59:36.891Z,99.99
2018-01-19T10:00:36.897Z,99.99
2018-01-19T10:01:36.762Z,99.99
2018-01-19T10:02:36.809Z,99.99
2018-01-19T10:03:36.700Z,99.99
2018-01-19T10:04:36.720Z,99.99
2018-01-19T10:05:36.649Z,99.99
2018-01-19T10:06:36.626Z,99.99
2018-01-19T10:07:36.593Z,99.99
2018-01-19T10:08:36.648Z,99.99
2018-01-19T10:09:36.540Z,99.99
2018-01-19T10:10:36.558Z,99.99
2018-01-19T10:11:36.488Z,99.99
2018-01-19T10:12:36.459Z,99.99
2018-01-19T10:13:36.507Z,99.99
2018-01-19T10:14:36.407Z,99.99
2018-01-19T10:15:36.388Z,99.99
2018-01-19T10:16:36.347Z,99.99
2018-01-19T10:17:36.332Z,99.99
2018-01-19T10:18:36.289Z,99.99
2018-01-19T10:19:36.344Z,99.99
2018-01-19T10:20:36.232Z,99.99
2018-01-19T10:21:36.254Z,99.99
2018-01-19T10:22:36.177Z,99.99
2018-01-19T10:23:36.155Z,99.99
2018-01-19T10:24:36.122Z,99.99
2018-01-19T10:25:36.180Z,99.99
2018-01-19T10:26:36.072Z,99.99
2018-01-19T10:27:36.093Z,99.99
2018-01-19T10:28:36.017Z,99.99
2018-01-19T10:29:35.991Z,99.99
2018-01-19T10:30:35.957Z,99.99
2018-01-19T10:31:36.009Z,99.99
2018-01-19T10:32:35.907Z,99.99
2018-01-19T10:33:35.921Z,99.99
2018-01-19T10:34:35.853Z,99.99
2018-01-19T10:35:35.932Z,99.99
2018-01-19T10:36:35.796Z,99.99
2018-01-19T10:37:35.842Z,99.99
2018-01-19T10:38:35.743Z,99.99
2018-01-19T10:39:35.752Z,99.99
2018-01-19T10:40:35.684Z,99.99
2018-01-19T10:41:35.662Z,99.99
2018-01-19T10:42:35.670Z,99.99
2018-01-19T10:43:35.601Z,99.99
2018-01-19T10:44:35.679Z,99.99
2018-01-19T10:45:35.553Z,99.99
2018-01-19T10:46:35.589Z,99.99
2018-01-19T10:47:35.498Z,99.99
2018-01-19T10:48:35.496Z,99.99
2018-01-19T10:49:35.445Z,99.99
2018-01-19T10:50:35.520Z,99.99
2018-01-19T10:51:35.385Z,99.99
2018-01-19T10:52:35.425Z,99.99
2018-01-19T10:53:35.329Z,99.99
2018-01-19T10:54:35.333Z,99.99
2018-01-19T10:55:35.271Z,99.99
2018-01-19T10:56:35.348Z,99.99
2018-01-19T10:57:35.220Z,99.99
2018-01-19T10:58:35.194Z,99.99
2018-01-19T10:59:35.259Z,99.99
2018-01-19T11:00:35.155Z,99.99
2018-01-19T11:01:35.169Z,99.99
2018-01-19T11:02:35.088Z,99.99
2018-01-19T11:03:35.079Z,99.99
2018-01-19T11:04:35.086Z,99.99
2018-01-19T11:05:35.002Z,99.99
2018-01-19T11:06:34.993Z,99.99
2018-01-19T11:07:34.948Z,99.99
2018-01-19T11:08:35.007Z,99.99
2018-01-19T11:09:34.898Z,99.99
2018-01-19T11:10:34.860Z,99.99
2018-01-19T11:11:34.923Z,99.99
2018-01-19T11:12:34.809Z,99.99
2018-01-19T11:13:34.836Z,99.99
2018-01-19T11:14:34.757Z,99.99
2018-01-19T11:15:34.743Z,99.99
2018-01-19T11:16:34.709Z,99.99
2018-01-19T11:17:34.756Z,99.99
2018-01-19T11:18:34.648Z,99.99
2018-01-19T11:19:34.665Z,99.99
2018-01-19T11:20:34.594Z,99.99
2018-01-19T11:21:34.560Z,99.99
2018-01-19T11:22:34.544Z,99.99
2018-01-19T11:23:34.691Z,99.99
2018-01-19T11:24:34.482Z,99.99
2018-01-19T11:25:34.506Z,99.99
2018-01-19T11:26:34.428Z,99.99
2018-01-19T11:27:34.401Z,99.99
2018-01-19T11:28:34.370Z,99.99
2018-01-19T11:29:34.421Z,99.99
2018-01-19T11:30:34.315Z,99.99
2018-01-19T11:31:34.329Z,99.99
2018-01-19T11:32:34.259Z,99.99
2018-01-19T11:33:34.240Z,99.99
2018-01-19T11:34:34.245Z,99.99
2018-01-19T11:35:34.182Z,99.99
2018-01-19T11:36:34.164Z,99.99
2018-01-19T11:37:34.127Z,99.99
2018-01-19T11:38:34.101Z,99.99
2018-01-19T11:39:34.074Z,99.99
2018-01-19T11:40:34.051Z,99.99
2018-01-19T11:41:34.018Z,99.99
2018-01-19T11:42:33.992Z,99.99
2018-01-19T11:43:33.964Z,99.99
2018-01-19T11:44:33.937Z,99.99
2018-01-19T11:45:33.907Z,99.99
2018-01-19T11:46:33.887Z,99.99
2018-01-19T11:47:33.851Z,99.99
2018-01-19T11:48:33.836Z,99.99
2018-01-19T11:49:33.800Z,99.99
2018-01-19T11:50:33.779Z,99.99
2018-01-19T11:51:33.751Z,99.99
2018-01-19T11:52:33.715Z,99.99
2018-01-19T11:53:33.714Z,99.99
2018-01-19T11:54:33.660Z,99.99
2018-01-19T11:55:33.638Z,99.99
2018-01-19T11:56:33.611Z,99.99
2018-01-19T11:57:33.586Z,99.99
2018-01-19T11:58:33.552Z,99.99
2018-01-19T11:59:33.535Z,99.99
2018-01-19T12:00:33.504Z,99.99
2018-01-19T12:01:33.474Z,99.99
2018-01-19T12:02:33.449Z,99.99
2018-01-19T12:03:33.427Z,99.99
2018-01-19T12:04:33.391Z,99.99
2018-01-19T12:05:33.373Z,99.99
2018-01-19T12:06:33.340Z,99.99
2018-01-19T12:07:33.316Z,99.68
2018-01-19T12:08:33.280Z,98.44
2018-01-19T12:09:33.263Z,98.63
2018-01-19T12:10:33.230Z,98.44
2018-01-19T12:11:33.210Z,98.16
2018-01-19T12:12:33.175Z,98.35
2018-01-19T12:13:33.159Z,97.78
2018-01-19T12:14:33.140Z,98.07
2018-01-19T12:15:33.105Z,98.54
2018-01-19T12:16:33.068Z,99.01
2018-01-19T12:17:33.050Z,98.73
2018-01-19T12:18:33.013Z,98.54
2018-01-19T12:19:32.985Z,97.50
2018-01-19T12:20:32.966Z,97.02
2018-01-19T12:21:32.939Z,98.25
2018-01-19T12:22:32.905Z,97.97
2018-01-19T12:23:32.892Z,98.54
2018-01-19T12:24:32.854Z,98.30
2018-01-19T12:25:32.834Z,97.78
2018-01-19T12:26:32.806Z,96.50
2018-01-19T12:27:32.778Z,96.78
2018-01-19T12:28:32.748Z,95.55
2018-01-19T12:29:32.714Z,95.55
2018-01-19T12:30:32.698Z,95.27
2018-01-19T12:31:32.668Z,95.17
2018-01-19T12:32:32.639Z,93.04
2018-01-19T12:33:32.614Z,94.51
2018-01-19T12:34:32.590Z,94.42
2018-01-19T12:35:32.566Z,94.51
2018-01-19T12:36:32.533Z,94.13
2018-01-19T12:37:32.504Z,95.17
2018-01-19T12:38:32.475Z,94.03
2018-01-19T12:39:32.454Z,93.46
2018-01-19T12:40:32.427Z,93.23
2018-01-19T12:41:32.403Z,91.99
2018-01-19T12:42:32.400Z,92.28
2018-01-19T12:43:32.364Z,93.04
2018-01-19T12:44:32.325Z,94.27
2018-01-19T12:45:32.379Z,95.22
2018-01-19T12:46:32.260Z,93.99
2018-01-19T12:47:32.292Z,93.80
2018-01-19T12:48:32.209Z,93.41
2018-01-19T12:49:32.178Z,93.32
2018-01-19T12:50:32.215Z,92.47
2018-01-19T12:51:32.127Z,91.99
2018-01-19T12:52:32.221Z,91.71